Aviation Digital Data Service (ADDS)

Output produced by METARs form (0419 UTC 07 March 2015)
found at http://aviationweather.gov/adds/metars/
 
KLCH 070353Z 00000KT 10SM CLR 03/M01 A3050 RMK AO2 SLP337 T00281006